Weather forecast for Zamuro, El Junquito

Venezuela, 1628 m
N10.473, E-67.034


Sounding

Red line — air temperature ˚C.
Blue line — thermal bubble temperature ˚C.
Green line — dew point temperature ˚C.
Wind speed is in meters per second.

Table forecast

GFS 0.25˚ model

temp. wind gust humid. clouds prec. press. hpbl
Wed18 00:00 20 161.0 sse 1 2 89 100 2.4 1011 128
03:00 20 172.0 s 1 2 84 100 2.4 1009 86
06:00 19 167.0 sse 1 2 80 100 0.0 1009 62
09:00 22 165.0 sse 2 2 76 86 0.0 1010 198
12:00 28 121.0 ese 0 2 61 61 0.3 1010 1001
15:00 27 71.0 ene 0 1 73 58 6.0 1007 796
18:00 24 185.0 s 0 1 84 100 9.5 1006 169
21:00 21 140.0 se 2 2 84 100 16.1 1008 139
 
Thu19 00:00 21 168.0 sse 1 2 84 100 1.2 1009 129
03:00 20 168.0 sse 1 2 86 100 1.9 1008 71
06:00 20 169.0 s 1 2 88 100 1.9 1007 134
09:00 21 170.0 s 2 2 87 100 2.4 1009 177
12:00 24 171.0 s 1 3 74 100 0.8 1010 559
15:00 25 162.0 sse 0 2 79 100 6.2 1008 615
18:00 24 71.0 ene 0 1 84 91 7.2 1007 259
21:00 21 220.0 sw 1 1 88 96 12.1 1009 96
 
Fri20 00:00 20 311.0 nw 1 1 89 100 1.9 1010 87
03:00 20 318.0 nw 1 1 91 99 3.9 1010 69
06:00 19 324.0 nw 0 0 92 100 4.9 1010 65
09:00 21 330.0 nnw 0 0 86 100 6.9 1012 135
12:00 25 7.0 n 1 1 78 100 3.1 1013 456
15:00 25 15.0 nne 1 2 79 100 9.3 1011 576
18:00 23 170.0 s 1 2 86 100 6.4 1010 282
21:00 20 195.0 ssw 1 1 94 100 27.4 1012 81
 
Sat21 00:00 20 141.0 se 1 2 89 100 4.4 1013 67
03:00 20 149.0 sse 1 2 88 100 4.8 1012 89
06:00 20 171.0 s 1 1 85 100 0.1 1011 41
09:00 22 143.0 se 1 2 79 96 0.1 1013 191
12:00 28 45.0 ne 1 2 59 100 0.3 1013 1090
15:00 27 31.0 nne 1 3 62 98 2.5 1011 1304
18:00 24 23.0 nne 1 2 81 95 3.1 1010 404
21:00 21 212.0 ssw 1 2 89 86 7.9 1011 185
 
Sun22 00:00 20 186.0 s 1 2 90 29 4.2 1012 104
03:00 20 163.0 sse 1 2 88 31 4.5 1011 54
06:00 19 155.0 sse 1 1 86 95 0.0 1011 32
09:00 22 127.0 se 1 2 80 89 0.0 1013 191
12:00 26 34.0 ne 1 2 71 93 1.5 1013 781
15:00 26 360.0 n 1 1 75 95 6.4 1010 751
18:00 22 343.0 nnw 1 2 85 95 8.1 1009 146
21:00 20 194.0 ssw 1 2 89 97 12.6 1011 99
 

0.013 s